Time;durP1;ratioP1;P1;durP2;ratioP2;P2;SDS_P1;SDS_P2;PMS_P1;PMS_P2;Temp;Humidity;BMP_temperature;BMP_pressure;BME280_temperature;BME280_humidity;BME280_pressure;Samples;Min_cycle;Max_cycle;Signal;HPM_P1;HPM_P2
2022/07/27 00:01:52;;;;;;;;;;;16.30;1.00;;;;;;4938415;29;19926;-87
2022/07/27 00:04:19;;;;;;;;;;;16.30;1.00;;;;;;4938060;29;19923;-89
2022/07/27 00:06:48;;;;;;;;;;;16.30;1.00;;;;;;4938447;29;20017;-88
2022/07/27 00:09:14;;;;;;;;;;;16.30;1.00;;;;;;4937524;29;19930;-88
2022/07/27 00:11:41;;;;;;;25.60;23.33;;;16.20;1.00;;;;;;4937609;29;20393;-88
2022/07/27 00:14:08;;;;;;;25.40;23.13;;;16.20;1.00;;;;;;4936872;29;20227;-88
2022/07/27 00:16:36;;;;;;;26.53;24.27;;;16.20;1.00;;;;;;4937212;29;20211;-88
2022/07/27 00:19:03;;;;;;;27.33;25.03;;;16.20;1.00;;;;;;4937357;29;20202;-87
2022/07/27 00:21:30;;;;;;;27.40;25.13;;;16.20;99.90;;;;;;4937156;29;20200;-86
2022/07/27 00:23:58;;;;;;;23.77;21.67;;;16.10;99.90;;;;;;4937351;29;20236;-87
2022/07/27 00:26:25;;;;;;;25.20;22.93;;;16.10;1.00;;;;;;4936786;29;20206;-87
2022/07/27 00:28:52;;;;;;;25.77;23.50;;;16.00;99.90;;;;;;4937226;29;20206;-87
2022/07/27 00:31:19;;;;;;;25.87;23.60;;;15.90;1.00;;;;;;4935562;29;20193;-87
2022/07/27 00:33:46;;;;;;;26.10;23.83;;;15.90;1.00;;;;;;4936950;29;20608;-89
2022/07/27 00:36:14;;;;;;;26.97;24.67;;;15.90;1.00;;;;;;4936756;29;20724;-88
2022/07/27 00:38:41;;;;;;;26.07;23.80;;;15.80;99.90;;;;;;4936434;29;20287;-89
2022/07/27 00:41:10;;;;;;;26.70;24.43;;;15.80;99.90;;;;;;4936661;29;20200;-87
2022/07/27 00:43:53;;;;;;;26.30;24.03;;;15.80;1.00;;;;;;4936267;29;20704;-88
2022/07/27 00:46:20;;;;;;;27.43;25.07;;;15.80;1.00;;;;;;4935523;29;20203;-87
2022/07/27 00:48:47;;;;;;;27.10;24.83;;;15.80;1.00;;;;;;4936181;29;20669;-87
2022/07/27 00:51:14;;;;;;;;;;;15.80;99.90;;;;;;4937215;29;20214;-88
2022/07/27 00:53:41;;;;;;;;;;;15.80;1.00;;;;;;4936865;29;19929;-89
2022/07/27 00:56:09;;;;;;;;;;;15.80;1.00;;;;;;4936899;29;19926;-87
2022/07/27 00:58:37;;;;;;;;;;;15.80;1.00;;;;;;4936828;29;19930;-88
2022/07/27 01:01:04;;;;;;;;;;;15.80;1.00;;;;;;4936833;29;19974;-88
2022/07/27 01:03:31;;;;;;;;;;;15.80;1.00;;;;;;4936690;29;19927;-87
2022/07/27 01:05:58;;;;;;;;;;;15.80;1.00;;;;;;4936415;29;19930;-87
2022/07/27 01:08:25;;;;;;;;;;;15.80;1.00;;;;;;4936557;29;19930;-88
2022/07/27 01:10:52;;;;;;;;;;;15.80;99.90;;;;;;4936784;29;19930;-88
2022/07/27 01:13:21;;;;;;;;;;;15.70;99.90;;;;;;4936522;29;19922;-87
2022/07/27 01:15:48;;;;;;;;;;;15.80;99.90;;;;;;4936324;29;19923;-88
2022/07/27 01:18:26;;;;;;;;;;;15.80;99.90;;;;;;4936092;29;19930;-87
2022/07/27 01:20:53;;;;;;;;;;;15.70;99.90;;;;;;4936822;29;19969;-87
2022/07/27 01:23:21;;;;;;;;;;;15.70;99.90;;;;;;4936173;29;19922;-87
2022/07/27 01:25:48;;;;;;;;;;;15.60;99.90;;;;;;4935928;29;20325;-88
2022/07/27 01:28:15;;;;;;;;;;;15.60;99.90;;;;;;4935975;29;19929;-88
2022/07/27 01:30:41;;;;;;;;;;;15.60;99.90;;;;;;4936460;29;19923;-89
2022/07/27 01:33:09;;;;;;;;;;;15.60;99.90;;;;;;4936230;29;20040;-87
2022/07/27 01:35:37;;;;;;;;;;;15.60;99.90;;;;;;4935814;29;19923;-87
2022/07/27 01:38:03;;;;;;;;;;;15.70;99.90;;;;;;4936555;29;20390;-88
2022/07/27 01:40:32;;;;;;;;;;;15.60;99.90;;;;;;4936426;29;19927;-89
2022/07/27 01:42:59;;;;;;;;;;;15.70;99.90;;;;;;4935914;29;19950;-89
2022/07/27 01:45:27;;;;;;;;;;;15.60;99.90;;;;;;4936460;29;20315;-88
2022/07/27 01:47:54;;;;;;;;;;;15.70;99.90;;;;;;4936750;29;19990;-87
2022/07/27 01:50:20;;;;;;;;;;;15.60;99.90;;;;;;4936118;29;19926;-87
2022/07/27 01:52:47;;;;;;;;;;;15.70;99.90;;;;;;4935978;29;19936;-87
2022/07/27 01:55:14;;;;;;;;;;;15.60;99.90;;;;;;4936113;29;19974;-87
2022/07/27 01:57:43;;;;;;;;;;;15.60;99.90;;;;;;4935977;29;19923;-87
2022/07/27 02:00:11;;;;;;;;;;;15.60;99.90;;;;;;4935518;29;19922;-87
2022/07/27 02:02:38;;;;;;;;;;;15.60;99.90;;;;;;4936292;29;20328;-87
2022/07/27 02:05:05;;;;;;;;;;;15.60;99.90;;;;;;4935378;29;19926;-87
2022/07/27 02:07:32;;;;;;;;;;;15.60;45.30;;;;;;4935716;29;19927;-87
2022/07/27 02:09:59;;;;;;;;;;;15.60;99.90;;;;;;4936144;29;20304;-88
2022/07/27 02:12:36;;;;;;;;;;;15.60;23.50;;;;;;4935475;29;19930;-88
2022/07/27 02:15:06;;;;;;;;;;;15.50;1.00;;;;;;4935956;29;19965;-87
2022/07/27 02:17:33;;;;;;;;;;;15.50;1.00;;;;;;4935554;29;20387;-88
2022/07/27 02:20:00;;;;;;;;;;;15.50;1.00;;;;;;4935433;29;20015;-87
2022/07/27 02:22:27;;;;;;;;;;;15.50;1.00;;;;;;4935751;29;20335;-87
2022/07/27 02:24:54;;;;;;;;;;;15.50;1.00;;;;;;4936093;29;19930;-87
2022/07/27 02:27:20;;;;;;;;;;;15.40;1.00;;;;;;4935736;29;19945;-87
2022/07/27 02:29:47;;;;;;;;;;;15.40;1.00;;;;;;4935574;29;19977;-87
2022/07/27 02:32:16;;;;;;;;;;;15.40;1.00;;;;;;4935683;29;19927;-88
2022/07/27 02:34:43;;;;;;;;;;;15.40;1.00;;;;;;4935546;29;19926;-87
2022/07/27 02:37:09;;;;;;;;;;;15.30;1.00;;;;;;4938662;29;19923;-88
2022/07/27 02:39:36;;;;;;;;;;;15.30;1.00;;;;;;4939151;29;19922;-87
2022/07/27 02:42:03;;;;;;;;;;;15.30;1.00;;;;;;4938910;29;19929;-86
2022/07/27 02:44:31;;;;;;;;;;;15.30;1.00;;;;;;4939052;29;20439;-88
2022/07/27 02:46:58;;;;;;;;;;;15.30;1.00;;;;;;4938897;29;19923;-87
2022/07/27 02:49:26;;;;;;;;;;;15.20;1.00;;;;;;4939150;29;19923;-87
2022/07/27 02:51:54;;;;;;;25.20;23.00;;;15.20;1.00;;;;;;4938553;29;20331;-87
2022/07/27 02:54:23;;;;;;;24.53;22.37;;;15.20;1.00;;;;;;4938364;29;20652;-87
2022/07/27 02:56:51;;;;;;;24.80;22.63;;;15.20;1.00;;;;;;4938020;29;20309;-87
2022/07/27 02:59:18;;;;;;;26.27;24.00;;;15.20;1.00;;;;;;4938695;29;20254;-88
2022/07/27 03:01:46;;;;;;;26.43;24.17;;;15.20;1.00;;;;;;4938063;29;20207;-87
2022/07/27 03:04:13;;;;;;;;;;;15.10;99.90;;;;;;4938590;29;20203;-88
2022/07/27 03:06:41;;;;;;;;;;;15.10;99.90;;;;;;4938987;29;19978;-88
2022/07/27 03:09:10;;;;;;;25.20;23.00;;;15.10;99.90;;;;;;4937886;29;20067;-87
2022/07/27 03:11:37;;;;;;;25.60;23.33;;;15.00;99.90;;;;;;4938242;29;20206;-87
2022/07/27 03:14:04;;;;;;;;;;;14.90;99.90;;;;;;4938482;29;20172;-87
2022/07/27 03:16:31;;;;;;;22.30;20.23;;;14.90;99.90;;;;;;4942896;29;20065;-87
2022/07/27 03:18:59;;;;;;;22.73;20.67;;;14.80;99.90;;;;;;4947466;29;20204;-90
2022/07/27 03:21:27;;;;;;;21.23;19.20;;;14.70;99.90;;;;;;4945239;29;20205;-85
2022/07/27 03:24:05;;;;;;;22.77;20.67;;;14.60;99.90;;;;;;4947143;29;20205;-89
2022/07/27 03:26:32;;;;;;;21.83;19.87;;;14.50;99.90;;;;;;4948708;29;20209;-87
2022/07/27 03:28:59;;;;;;;18.33;16.63;;;14.50;99.90;;;;;;4948109;29;20208;-87
2022/07/27 03:31:29;;;;;;;20.53;18.77;;;14.40;99.90;;;;;;4947543;29;20216;-92
2022/07/27 03:33:56;;;;;;;18.13;16.33;;;14.30;99.90;;;;;;4948553;29;20567;-87
2022/07/27 03:36:24;;;;;;;16.27;14.60;;;14.30;99.90;;;;;;4948247;29;20236;-89
2022/07/27 03:38:57;;;;;;;19.83;18.07;;;14.20;99.90;;;;;;4948338;29;20202;-87
2022/07/27 03:41:45;;;;;;;17.50;15.83;;;14.20;99.90;;;;;;4946038;29;20204;-88
2022/07/27 03:44:12;;;;;;;20.03;18.13;;;14.10;99.90;;;;;;4946719;29;20192;-88
2022/07/27 03:46:39;;;;;;;20.30;18.33;;;14.10;99.90;;;;;;4945706;29;20221;-87
2022/07/27 03:49:06;;;;;;;20.87;19.13;;;14.10;99.90;;;;;;4945789;29;20216;-87
2022/07/27 03:51:33;;;;;;;21.20;19.40;;;14.10;99.90;;;;;;4945801;29;20197;-86
2022/07/27 03:54:02;;;;;;;24.77;22.93;;;14.00;99.90;;;;;;4947471;29;20203;-86
2022/07/27 03:56:37;;;;;;;19.67;18.00;;;14.00;99.90;;;;;;4946540;29;20193;-89
2022/07/27 03:59:05;;;;;;;21.80;19.97;;;14.00;99.90;;;;;;4946302;29;20213;-87
2022/07/27 04:01:40;;;;;;;22.63;21.00;;;14.00;99.90;;;;;;4945735;29;20211;-87
2022/07/27 04:04:07;;;;;;;26.10;24.20;;;14.20;1.00;;;;;;4945651;29;20200;-90
2022/07/27 04:06:34;;;;;;;18.27;16.53;;;15.00;1.00;;;;;;4945970;29;20711;-87
2022/07/27 04:09:04;;;;;;;25.13;23.37;;;15.70;1.00;;;;;;4948458;29;20209;-91
2022/07/27 04:11:32;;;;;;;24.73;22.80;;;16.40;1.00;;;;;;4947954;29;20278;-88
2022/07/27 04:13:59;;;;;;;31.17;27.97;;;17.00;1.00;;;;;;4946544;29;20206;-91
2022/07/27 04:16:26;;;;;;;28.80;26.53;;;17.90;1.00;;;;;;4946618;29;20194;-88
2022/07/27 04:18:53;;;;;;;25.90;23.83;;;18.60;1.00;;;;;;4947836;29;20212;-88
2022/07/27 04:21:20;;;;;;;25.30;23.33;;;18.80;1.00;;;;;;4946975;29;20594;-86
2022/07/27 04:23:51;;;;;;;26.70;24.57;;;18.70;1.00;;;;;;4947489;29;20201;-91
2022/07/27 04:26:18;;;;;;;28.57;26.53;;;18.70;1.00;;;;;;4946130;29;20221;-87
2022/07/27 04:28:46;;;;;;;28.67;26.60;;;18.60;1.00;;;;;;4946220;29;20201;-87
2022/07/27 04:31:13;;;;;;;33.00;30.50;;;18.20;1.00;;;;;;4944886;29;20200;-88
2022/07/27 04:33:40;;;;;;;26.77;24.77;;;17.90;99.90;;;;;;4944301;29;20199;-86
2022/07/27 04:36:17;;;;;;;26.37;24.40;;;17.60;99.90;;;;;;4946696;29;20207;-86
2022/07/27 04:38:48;;;;;;;28.00;25.73;;;17.30;99.90;;;;;;4942812;29;20203;-87
2022/07/27 04:41:15;;;;;;;31.00;28.33;;;17.10;1.00;;;;;;4945643;29;20321;-87
2022/07/27 04:43:42;;;;;;;31.33;28.83;;;16.90;1.00;;;;;;4938336;29;20254;-87
2022/07/27 04:46:12;;;;;;;29.93;27.47;;;16.70;1.00;;;;;;4935285;29;20215;-88
2022/07/27 04:48:39;;;;;;;31.20;28.63;;;16.60;1.00;;;;;;4935843;29;20237;-89
2022/07/27 04:51:06;;;;;;;28.27;25.93;;;16.50;1.00;;;;;;4935630;29;20679;-87
2022/07/27 04:53:34;;;;;;;31.30;29.10;;;16.40;1.00;;;;;;4935809;29;20218;-88
2022/07/27 04:56:01;;;;;;;28.03;25.73;;;16.40;1.00;;;;;;4933420;29;20200;-90
2022/07/27 04:58:28;;;;;;;29.00;26.63;;;16.40;1.00;;;;;;4937681;29;20254;-87
2022/07/27 05:00:56;;;;;;;26.10;24.20;;;16.50;1.00;;;;;;4929809;29;20201;-90
2022/07/27 05:03:24;;;;;;;26.87;24.90;;;16.50;1.00;;;;;;4916837;29;20202;-89
2022/07/27 05:05:52;;;;;;;27.83;25.77;;;16.50;1.00;;;;;;4921588;29;20621;-86
2022/07/27 05:08:19;;;;;;;26.70;24.70;;;16.60;1.00;;;;;;4931963;29;20194;-88
2022/07/27 05:10:46;;;;;;;33.53;31.13;;;16.60;1.00;;;;;;4942133;28;20645;-86
2022/07/27 05:13:13;;;;;;;32.53;29.77;;;16.70;1.00;;;;;;4949487;29;20196;-86
2022/07/27 05:15:40;;;;;;;37.77;34.07;;;16.80;1.00;;;;;;4952955;29;20193;-87
2022/07/27 05:18:08;;;;;;;38.47;34.83;;;16.80;1.00;;;;;;4950686;29;20197;-87
2022/07/27 05:20:36;;;;;;;41.43;37.80;;;17.00;1.00;;;;;;4952742;29;20288;-87
2022/07/27 05:23:03;;;;;;;58.90;38.47;;;17.10;1.00;;;;;;4951295;29;20197;-89
2022/07/27 05:25:30;;;;;;;81.57;42.23;;;17.20;1.00;;;;;;4952105;29;20194;-86
2022/07/27 05:27:57;;;;;;;51.13;36.33;;;17.30;99.90;;;;;;4952765;29;20206;-88
2022/07/27 05:30:24;;;;;;;73.43;53.13;;;17.60;1.00;;;;;;4952781;29;20194;-85
2022/07/27 05:32:52;;;;;;;106.53;62.90;;;18.80;99.90;;;;;;4952788;29;20223;-85
2022/07/27 05:35:19;;;;;;;48.70;40.87;;;20.20;1.00;;;;;;4950499;29;20631;-85
2022/07/27 05:37:47;;;;;;;34.10;31.70;;;20.60;99.90;;;;;;4952789;29;20200;-85
2022/07/27 05:40:14;;;;;;;27.47;24.73;;;20.50;58.00;;;;;;4935550;29;20204;-85
2022/07/27 05:42:43;;;;;;;25.37;23.23;;;20.20;1.00;;;;;;4935231;29;20194;-85
2022/07/27 05:45:11;;;;;;;36.33;27.70;;;20.00;1.00;;;;;;4935417;29;20271;-85
2022/07/27 05:47:38;;;;;;;28.70;26.07;;;19.80;1.00;;;;;;4935102;29;20228;-86
2022/07/27 05:50:06;;;;;;;28.30;25.77;;;19.80;1.00;;;;;;4935600;29;20283;-84
2022/07/27 05:52:34;;;;;;;25.90;23.87;;;19.80;5.70;;;;;;4935412;29;20197;-85
2022/07/27 05:55:04;;;;;;;27.27;24.97;;;19.80;1.00;;;;;;4934792;29;20220;-87
2022/07/27 05:57:31;;;;;;;25.13;23.07;;;19.70;1.00;;;;;;4935022;29;20196;-86
2022/07/27 06:00:00;;;;;;;29.67;23.50;;;19.80;1.00;;;;;;4938005;29;20211;-88
2022/07/27 06:02:27;;;;;;;26.20;23.93;;;20.10;1.00;;;;;;4938707;29;20217;-85
2022/07/27 06:04:54;;;;;;;29.87;26.70;;;20.30;1.00;;;;;;4933167;29;20197;-86
2022/07/27 06:10:22;;;;;;;26.20;23.77;;;21.50;1.00;;;;;;4871327;29;20231;-85
2022/07/27 06:12:49;;;;;;;28.63;25.90;;;21.70;1.00;;;;;;4891734;29;20209;-87
2022/07/27 06:15:18;;;;;;;32.23;26.93;;;21.60;1.00;;;;;;4917093;29;20215;-86
2022/07/27 06:17:48;;;;;;;28.25;25.60;;;21.60;1.00;;;;;;4936726;29;20733;-86
2022/07/27 06:20:15;;;;;;;;;;;22.00;1.00;;;;;;4947138;29;20202;-86
2022/07/27 06:22:58;;;;;;;;;;;22.90;1.00;;;;;;4940600;29;20094;-90
2022/07/27 06:25:35;;;;;;;603.97;273.63;;;23.80;1.00;;;;;;4939695;29;20502;-88
2022/07/27 06:28:09;;;;;;;;;;;24.50;1.00;;;;;;4965521;29;20088;-89
2022/07/27 06:30:36;;;;;;;;;;;24.90;1.00;;;;;;4950093;29;19966;-87
2022/07/27 06:33:04;;;;;;;;;;;24.90;1.00;;;;;;4941684;29;20055;-87
2022/07/27 06:35:31;;;;;;;124.53;72.80;;;25.10;1.00;;;;;;4944657;29;20167;-90
2022/07/27 06:37:58;;;;;;;631.30;344.37;;;25.30;1.00;;;;;;4943997;28;20212;-88
2022/07/27 06:40:27;;;;;;;301.40;169.40;;;25.50;1.00;;;;;;4933755;29;20196;-88
2022/07/27 06:42:54;;;;;;;301.60;172.20;;;25.70;1.00;;;;;;4933602;29;20200;-85
2022/07/27 06:45:30;;;;;;;;;;;26.10;1.00;;;;;;4937144;29;20197;-87
2022/07/27 06:47:57;;;;;;;630.57;349.93;;;26.40;1.00;;;;;;4938036;29;20061;-87
2022/07/27 06:50:25;;;;;;;617.37;345.70;;;27.00;1.00;;;;;;4940606;29;20200;-86
2022/07/27 06:52:51;;;;;;;;;;;27.50;99.90;;;;;;4943071;29;20073;-88
2022/07/27 06:55:18;;;;;;;;;;;27.90;99.90;;;;;;4941690;29;20390;-87
2022/07/27 06:57:48;;;;;;;;;;;28.50;99.90;;;;;;4943712;28;20206;-91
2022/07/27 07:00:16;;;;;;;642.33;409.10;;;28.90;99.90;;;;;;4942999;29;20058;-85
2022/07/27 07:02:54;;;;;;;618.17;368.97;;;29.40;99.90;;;;;;4945716;29;20209;-89
2022/07/27 07:05:21;;;;;;;611.42;392.02;;;30.10;99.90;;;;;;4939780;29;20196;-87
2022/07/27 07:07:55;;;;;;;620.85;422.70;;;30.70;99.90;;;;;;4941541;29;20621;-89
2022/07/27 07:10:23;;;;;;;613.10;407.02;;;30.90;99.90;;;;;;4940059;29;20264;-86
2022/07/27 07:12:54;;;;;;;626.28;442.77;;;31.10;99.90;;;;;;4941801;29;20226;-86
2022/07/27 07:15:22;;;;;;;665.78;525.28;;;31.20;99.90;;;;;;4938074;29;20193;-86
2022/07/27 07:17:49;;;;;;;843.10;757.92;;;31.20;99.90;;;;;;4937052;29;20228;-86
2022/07/27 07:20:17;;;;;;;820.17;735.85;;;30.90;99.90;;;;;;4942225;29;20173;-90
2022/07/27 07:22:44;;;;;;;695.08;542.65;;;30.90;99.90;;;;;;4945171;28;20205;-87
2022/07/27 07:25:11;;;;;;;724.53;634.95;;;31.00;99.90;;;;;;4945987;29;20201;-85
2022/07/27 07:27:47;;;;;;;758.72;676.97;;;31.10;99.90;;;;;;4954162;29;20204;-90
2022/07/27 07:30:15;;;;;;;754.20;670.80;;;31.30;99.90;;;;;;4935753;29;20200;-85
2022/07/27 07:32:42;;;;;;;881.58;797.00;;;30.80;99.90;;;;;;4941117;29;20193;-85
2022/07/27 07:35:10;;;;;;;840.20;755.30;;;30.60;99.90;;;;;;4941526;28;20201;-85
2022/07/27 07:37:37;;;;;;;852.45;766.75;;;30.70;99.90;;;;;;4945530;29;20227;-89
2022/07/27 07:40:05;;;;;;;891.67;806.97;;;31.20;99.90;;;;;;4940206;29;20235;-85
2022/07/27 07:42:33;;;;;;;927.78;840.53;;;31.50;99.90;;;;;;4937140;29;20197;-85
2022/07/27 07:45:00;;;;;;;905.10;819.85;;;31.60;99.90;;;;;;4944410;29;20196;-86
2022/07/27 07:47:29;;;;;;;921.40;835.45;;;31.90;99.90;;;;;;4931949;29;20209;-85
2022/07/27 07:49:56;;;;;;;824.33;740.00;;;32.30;99.90;;;;;;4943429;29;20703;-86
2022/07/27 07:52:39;;;;;;;925.13;838.72;;;32.60;99.90;;;;;;4942868;29;20206;-85
2022/07/27 07:55:18;;;;;;;941.80;852.90;;;32.10;99.90;;;;;;4947924;29;20193;-85
2022/07/27 07:57:46;;;;;;;944.80;856.10;;;31.80;99.90;;;;;;4960146;29;20209;-86
2022/07/27 08:00:14;;;;;;;912.25;827.53;;;31.60;99.90;;;;;;4942320;29;20249;-84
2022/07/27 08:03:05;;;;;;;912.97;828.08;;;31.50;99.90;;;;;;4941686;29;20188;-91
2022/07/27 08:05:33;;;;;;;901.28;816.92;;;31.50;99.90;;;;;;4942302;29;20209;-90
2022/07/27 08:08:00;;;;;;;918.83;831.55;;;31.60;99.90;;;;;;4936521;29;20672;-88
2022/07/27 08:10:33;;;;;;;844.92;759.17;;;32.10;99.90;;;;;;4954748;29;20228;-91
2022/07/27 08:13:00;;;;;;;909.88;822.67;;;32.60;99.90;;;;;;4936905;29;20225;-86
2022/07/27 08:15:29;;;;;;;914.15;829.83;;;32.50;99.90;;;;;;4933768;29;20201;-90
2022/07/27 08:18:08;;;;;;;911.05;826.45;;;32.20;99.90;;;;;;4945919;29;20225;-89
2022/07/27 08:20:35;;;;;;;904.13;819.85;;;31.60;99.90;;;;;;4949970;29;20197;-90
2022/07/27 08:23:03;;;;;;;;;;;30.80;99.90;;;;;;4934922;29;20087;-88
2022/07/27 08:25:31;;;;;;;;;;;29.80;99.90;;;;;;4936079;29;19927;-89
2022/07/27 08:27:58;;;;;;;;;;;28.90;99.90;;;;;;4936804;29;19952;-86
2022/07/27 08:30:25;;;;;;;850.63;764.07;;;28.50;99.90;;;;;;4939543;29;20178;-85
2022/07/27 08:32:54;;;;;;;717.60;610.67;;;28.00;99.90;;;;;;4940188;29;20689;-83
2022/07/27 08:35:23;;;;;;;837.37;753.17;;;27.40;99.90;;;;;;4940292;29;20202;-85
2022/07/27 08:37:50;;;;;;;832.03;748.60;;;27.80;99.90;;;;;;4935757;29;20256;-86
2022/07/27 08:40:18;;;;;;;846.93;763.13;;;28.60;99.90;;;;;;4936803;29;20668;-86
2022/07/27 08:42:45;;;;;;;820.90;737.70;;;28.90;99.90;;;;;;4946488;29;20221;-87
2022/07/27 08:45:18;;;;;;;814.57;732.60;;;28.50;99.90;;;;;;4934694;29;20197;-85
2022/07/27 08:47:46;;;;;;;816.53;733.27;;;27.70;99.90;;;;;;4935527;29;20190;-90
2022/07/27 08:50:23;;;;;;;805.37;721.77;;;26.90;99.90;;;;;;4935295;29;20535;-85
2022/07/27 08:53:02;;;;;;;778.37;695.13;;;26.70;99.90;;;;;;4941817;29;20189;-89
2022/07/27 08:55:32;;;;;;;721.63;618.50;;;26.40;99.90;;;;;;4942240;29;20657;-84
2022/07/27 08:57:59;;;;;;;713.53;618.40;;;25.80;99.90;;;;;;4936399;29;20638;-85
2022/07/27 09:00:27;;;;;;;712.17;606.13;;;25.30;99.90;;;;;;4940232;29;20196;-84
2022/07/27 09:02:55;;;;;;;711.73;597.67;;;25.00;99.90;;;;;;4948812;29;20193;-85
2022/07/27 09:05:22;;;;;;;704.93;592.87;;;25.00;99.90;;;;;;4939512;29;20205;-85
2022/07/27 09:07:50;;;;;;;703.43;585.20;;;24.80;99.90;;;;;;4935663;29;20197;-86
2022/07/27 09:10:50;;;;;;;699.70;567.50;;;24.80;99.90;;;;;;4942403;29;20119;-85
2022/07/27 09:13:50;;;;;;;700.83;582.33;;;25.50;99.90;;;;;;4952018;29;20196;-89
2022/07/27 09:16:40;;;;;;;698.90;575.17;;;26.10;99.90;;;;;;4943582;29;20212;-88
2022/07/27 09:19:10;;;;;;;704.40;586.03;;;25.80;99.90;;;;;;4945750;29;20241;-87
2022/07/27 09:21:37;;;;;;;705.97;598.43;;;25.30;99.90;;;;;;4926849;29;20210;-87
2022/07/27 09:24:16;;;;;;;716.13;628.03;;;25.00;99.90;;;;;;4952033;29;20192;-91
2022/07/27 09:26:44;;;;;;;721.57;629.37;;;25.00;99.90;;;;;;4930315;29;20201;-87
2022/07/27 09:29:14;;;;;;;719.60;621.10;;;24.90;99.90;;;;;;4928921;29;20218;-85
2022/07/27 09:31:43;;;;;;;716.53;607.03;;;24.60;99.90;;;;;;4927350;29;20231;-86
2022/07/27 09:34:11;;;;;;;713.17;593.43;;;24.50;99.90;;;;;;4930400;29;20206;-84
2022/07/27 09:36:51;;;;;;;703.47;576.03;;;24.40;99.90;;;;;;4927330;29;20240;-86
2022/07/27 09:39:19;;;;;;;701.13;579.30;;;24.80;99.90;;;;;;4930862;29;20227;-85
2022/07/27 09:41:49;;;;;;;695.93;562.73;;;25.20;99.90;;;;;;4924265;29;20193;-86
2022/07/27 09:44:17;;;;;;;700.97;572.67;;;25.20;99.90;;;;;;4923124;29;20269;-85
2022/07/27 09:46:47;;;;;;;695.13;564.83;;;25.00;99.90;;;;;;4922339;29;20244;-87
2022/07/27 09:49:30;;;;;;;695.50;565.13;;;24.80;99.90;;;;;;4931429;29;20199;-85
2022/07/27 09:51:58;;;;;;;702.53;575.07;;;24.50;99.90;;;;;;4926956;29;20295;-86
2022/07/27 09:54:26;;;;;;;698.27;567.37;;;24.30;99.90;;;;;;4925079;29;20197;-86
2022/07/27 09:57:01;;;;;;;698.60;564.57;;;24.40;99.90;;;;;;4930145;29;20677;-84
2022/07/27 09:59:30;;;;;;;696.03;550.47;;;24.40;99.90;;;;;;4926250;29;20194;-85
2022/07/27 10:01:57;;;;;;;695.37;546.43;;;24.30;99.90;;;;;;4928581;29;20204;-87
2022/07/27 10:04:25;;;;;;;691.10;543.50;;;24.30;99.90;;;;;;4928164;29;20204;-86
2022/07/27 10:06:53;;;;;;;698.17;558.03;;;24.10;99.90;;;;;;4949439;29;20291;-89
2022/07/27 10:09:20;;;;;;;697.67;554.87;;;23.90;99.90;;;;;;4940698;29;20197;-87
2022/07/27 10:11:48;;;;;;;698.33;549.33;;;23.70;99.90;;;;;;4936945;29;20601;-85
2022/07/27 10:14:17;;;;;;;697.03;548.37;;;23.80;99.90;;;;;;4937740;29;20201;-87
2022/07/27 10:16:49;;;;;;;690.23;533.40;;;24.20;99.90;;;;;;4936934;29;20189;-86
2022/07/27 10:19:21;;;;;;;692.00;540.23;;;24.40;99.90;;;;;;4937897;29;20231;-85
2022/07/27 10:21:48;;;;;;;695.67;553.53;;;24.30;99.90;;;;;;4937693;29;20201;-86
2022/07/27 10:24:25;;;;;;;698.80;555.47;;;24.20;99.90;;;;;;4924612;29;20209;-87
2022/07/27 10:26:52;;;;;;;700.00;564.07;;;24.10;99.90;;;;;;4937702;29;20412;-86
2022/07/27 10:29:22;;;;;;;704.23;569.20;;;24.10;99.90;;;;;;4935047;29;20200;-85
2022/07/27 10:32:00;;;;;;;698.57;555.53;;;24.10;99.90;;;;;;4934902;29;20200;-85
2022/07/27 10:34:36;;;;;;;700.37;549.03;;;24.10;99.90;;;;;;4935413;29;20196;-86
2022/07/27 10:37:11;;;;;;;707.53;567.70;;;24.00;99.90;;;;;;4934627;29;20571;-86
2022/07/27 10:39:40;;;;;;;706.73;549.53;;;23.80;99.90;;;;;;4934390;29;20192;-86
2022/07/27 10:42:23;;;;;;;712.07;569.20;;;23.50;99.90;;;;;;4934097;29;20204;-87
2022/07/27 10:45:10;;;;;;;709.93;560.73;;;23.40;99.90;;;;;;4933997;29;20650;-86
2022/07/27 10:47:40;;;;;;;707.70;566.57;;;23.40;99.90;;;;;;4934760;29;20189;-84
2022/07/27 10:50:47;;;;;;;703.27;546.40;;;23.40;99.90;;;;;;4934369;29;20217;-85
2022/07/27 10:53:14;;;;;;;688.80;522.67;;;23.70;99.90;;;;;;4947716;29;20180;-85
2022/07/27 10:55:49;;;;;;;690.73;528.27;;;24.30;99.90;;;;;;4942809;29;20193;-85
2022/07/27 10:58:46;;;;;;;687.20;527.73;;;24.80;99.90;;;;;;4949882;29;20610;-87
2022/07/27 11:01:16;;;;;;;691.57;542.70;;;24.80;99.90;;;;;;4952158;29;20671;-85
2022/07/27 11:03:54;;;;;;;699.63;558.87;;;24.50;99.90;;;;;;4941558;29;20263;-85
2022/07/27 11:06:27;;;;;;;696.53;553.07;;;24.10;99.90;;;;;;4957721;29;20192;-84
2022/07/27 11:08:55;;;;;;;705.83;572.90;;;23.80;99.90;;;;;;4957360;29;20195;-84
2022/07/27 11:11:24;;;;;;;698.13;536.53;;;23.70;99.90;;;;;;4957279;29;20228;-84
2022/07/27 11:13:52;;;;;;;697.23;546.70;;;23.60;99.90;;;;;;4957286;29;20200;-84
2022/07/27 11:16:21;;;;;;;692.23;534.70;;;23.60;99.90;;;;;;4938892;29;20738;-85
2022/07/27 11:19:03;;;;;;;693.60;540.70;;;23.70;99.90;;;;;;4937908;29;20217;-85
2022/07/27 11:21:33;;;;;;;691.37;539.93;;;23.90;99.90;;;;;;4938156;29;20223;-84
2022/07/27 11:24:04;;;;;;;692.20;536.20;;;24.00;99.90;;;;;;4937986;29;20273;-84
2022/07/27 11:26:38;;;;;;;691.83;540.80;;;24.10;99.90;;;;;;4937950;29;20207;-85
2022/07/27 11:29:08;;;;;;;692.17;540.37;;;24.20;99.90;;;;;;4937575;29;20192;-84
2022/07/27 11:31:39;;;;;;;691.77;535.00;;;24.20;99.90;;;;;;4937647;29;20249;-84
2022/07/27 11:34:06;;;;;;;690.43;535.97;;;24.20;99.90;;;;;;4937841;29;20185;-85
2022/07/27 11:36:39;;;;;;;694.30;547.83;;;24.20;99.90;;;;;;4937737;29;20208;-84
2022/07/27 11:39:09;;;;;;;702.10;547.90;;;24.00;99.90;;;;;;4937424;29;20296;-85
2022/07/27 11:41:37;;;;;;;697.97;557.40;;;24.00;99.90;;;;;;4941681;29;20205;-83
2022/07/27 11:44:07;;;;;;;696.00;550.80;;;23.80;99.90;;;;;;4935702;29;20200;-86
2022/07/27 11:46:41;;;;;;;696.27;555.67;;;23.70;99.90;;;;;;4936189;29;20203;-86
2022/07/27 11:49:12;;;;;;;693.20;543.77;;;23.60;99.90;;;;;;4936436;29;20535;-84
2022/07/27 11:51:43;;;;;;;693.30;536.07;;;23.70;99.90;;;;;;4934214;29;20645;-83
2022/07/27 11:54:11;;;;;;;693.13;540.90;;;23.80;99.90;;;;;;4936336;29;20586;-84
2022/07/27 11:56:43;;;;;;;690.80;533.33;;;23.80;99.90;;;;;;4931212;29;20194;-84
2022/07/27 11:59:12;;;;;;;692.17;543.57;;;23.80;99.90;;;;;;4934703;29;20300;-84
2022/07/27 12:01:42;;;;;;;694.33;547.07;;;23.80;99.90;;;;;;4936504;29;20197;-85
2022/07/27 12:04:17;;;;;;;695.40;539.73;;;23.80;99.90;;;;;;4935842;29;20189;-84
2022/07/27 12:06:48;;;;;;;696.10;536.50;;;23.70;99.90;;;;;;4936516;29;20221;-84
2022/07/27 12:09:17;;;;;;;688.97;521.50;;;23.50;99.90;;;;;;4934500;29;20201;-85
2022/07/27 12:11:55;;;;;;;697.17;537.70;;;23.40;99.90;;;;;;4935803;29;20201;-86
2022/07/27 12:14:33;;;;;;;698.17;543.27;;;23.30;99.90;;;;;;4933675;29;20245;-85
2022/07/27 12:17:21;;;;;;;695.03;531.40;;;23.20;99.90;;;;;;4933112;29;20185;-85
2022/07/27 12:19:56;;;;;;;693.27;530.27;;;23.10;99.90;;;;;;4933963;29;20201;-85
2022/07/27 12:22:27;;;;;;;692.10;517.70;;;23.10;99.90;;;;;;4934302;29;20189;-86
2022/07/27 12:24:56;;;;;;;693.30;521.87;;;23.10;99.90;;;;;;4934700;29;20189;-85
2022/07/27 12:27:25;;;;;;;689.97;516.33;;;23.20;99.90;;;;;;4936213;29;20190;-84
2022/07/27 12:30:00;;;;;;;690.90;522.73;;;23.20;99.90;;;;;;4933909;29;20669;-84
2022/07/27 12:32:30;;;;;;;693.73;531.43;;;23.10;99.90;;;;;;4943774;29;20176;-84
2022/07/27 12:34:58;;;;;;;700.77;545.33;;;22.90;99.90;;;;;;4946712;29;20185;-85
2022/07/27 12:37:30;;;;;;;697.70;533.40;;;22.80;99.90;;;;;;4955631;29;20251;-84
2022/07/27 12:39:57;;;;;;;695.23;529.27;;;22.80;99.90;;;;;;4956623;29;20684;-88
2022/07/27 12:42:33;;;;;;;706.27;526.17;;;22.80;99.90;;;;;;4958923;29;20197;-84
2022/07/27 12:45:15;;;;;;;693.30;514.90;;;22.80;99.90;;;;;;4942001;29;20214;-84
2022/07/27 12:47:42;;;;;;;707.67;547.00;;;22.80;99.90;;;;;;4936422;29;20185;-84
2022/07/27 12:50:13;;;;;;;703.33;541.30;;;22.60;99.90;;;;;;4936327;29;20204;-84
2022/07/27 12:52:44;;;;;;;703.50;536.10;;;22.60;99.90;;;;;;4936419;29;20197;-83
2022/07/27 12:55:11;;;;;;;701.20;527.37;;;22.50;99.90;;;;;;4938075;29;20185;-86
2022/07/27 12:57:39;;;;;;;703.23;533.30;;;22.50;99.90;;;;;;4936358;29;20260;-86
2022/07/27 13:00:09;;;;;;;703.77;548.03;;;22.50;99.90;;;;;;4935788;29;20654;-85